PWSweather.com
Personal Weather Stations
Station Observations
WODONGA
Wodonga, WodongaAU 3690

WodongaWodongaAU 3690

Lat: -36.121, Lon: 146.87

Elevation: 541

Station Type: Weather Station

http://www.wodongaweather.net

Latest ConditionsUpdated 8:15:02 PM GMT+10:10 Sunday, Aug 2, 2015
Currently Today's Max Today's Min Today's Average
Temperature 45.5°F7.5°C 55.6°F13.1°C 43.7°F6.5°C 47.3°F8.5°C
Dew Point 41.0°F5.0°C 47.2°F8.4°C 39.0°F3.9°C 43.5°F6.4°C
Winds 3.3 mph NW5.3 kmh NW 12.7 mph W20.4 kmh W - 3.7 mph 6.0 kmh
Wind Gusts 5.4 mph8.7 kmh 16.8 mph27.0 kmh - -
Humidity 84% 99% 61% 88%
Pressure 30.03 in1016.9 mb 30.03 in1016.9 mb 29.89 in1012.2 mb -
Precipitation - 0.08 in2.0 mm - -
Hour Temp Dew Point Humidity Winds Wind Gusts Pressure Precip Precip Rate Daily Precip Total
08:15 PM 45.5°F7.5°C 41.0°F5.0°C 84% 3.3 mph NW5.3 kmh NW 5.4 mph8.7 kmh 30.03 in1016.9 mb 0.00 in0.0 mm 0.00 in0.0 mm 0.08 in2.0 mm
08:10 PM 45.5°F7.5°C 41.0°F5.0°C 84% 3.8 mph NW6.1 kmh NW 5.4 mph8.7 kmh 30.03 in1016.9 mb 0.00 in0.0 mm 0.00 in0.0 mm 0.08 in2.0 mm
08:05 PM 45.3°F7.4°C 40.5°F4.7°C 83% 3.9 mph NNW6.3 kmh NNW 6.0 mph9.7 kmh 30.02 in1016.6 mb 0.00 in0.0 mm 0.00 in0.0 mm 0.08 in2.0 mm
08:00 PM 45.5°F7.5°C 40.6°F4.8°C 83% 4.5 mph N7.2 kmh N 6.0 mph9.7 kmh 30.02 in1016.6 mb 0.00 in0.0 mm 0.00 in0.0 mm 0.08 in2.0 mm
07:55 PM 45.9°F7.7°C 40.7°F4.8°C 82% 4.4 mph N7.1 kmh N 6.0 mph9.7 kmh 30.02 in1016.6 mb 0.00 in0.0 mm 0.00 in0.0 mm 0.08 in2.0 mm
07:50 PM 45.9°F7.7°C 40.7°F4.8°C 82% 3.2 mph NW5.1 kmh NW 6.0 mph9.7 kmh 30.03 in1016.9 mb 0.00 in0.0 mm 0.00 in0.0 mm 0.08 in2.0 mm
07:45 PM 46.2°F7.9°C 40.7°F4.8°C 81% 2.9 mph WNW4.7 kmh WNW 4.5 mph7.2 kmh 30.03 in1016.9 mb 0.00 in0.0 mm 0.00 in0.0 mm 0.08 in2.0 mm
07:40 PM 46.4°F8.0°C 40.6°F4.8°C 80% 3.4 mph WNW5.5 kmh WNW 4.5 mph7.2 kmh 30.03 in1016.9 mb 0.00 in0.0 mm 0.00 in0.0 mm 0.08 in2.0 mm
07:35 PM 46.6°F8.1°C 40.7°F4.8°C 80% 3.5 mph NW5.6 kmh NW 4.5 mph7.2 kmh 30.03 in1016.9 mb 0.00 in0.0 mm 0.00 in0.0 mm 0.08 in2.0 mm
07:30 PM 46.4°F8.0°C 40.6°F4.8°C 80% 3.1 mph NW5.0 kmh NW 5.4 mph8.7 kmh 30.03 in1016.9 mb 0.00 in0.0 mm 0.00 in0.0 mm 0.08 in2.0 mm
07:25 PM 46.6°F8.1°C 40.7°F4.8°C 80% 3.5 mph NW5.6 kmh NW 6.0 mph9.7 kmh 30.03 in1016.9 mb 0.00 in0.0 mm 0.00 in0.0 mm 0.08 in2.0 mm
07:20 PM 46.6°F8.1°C 40.7°F4.8°C 80% 4.3 mph NW6.9 kmh NW 6.0 mph9.7 kmh 30.02 in1016.6 mb 0.00 in0.0 mm 0.00 in0.0 mm 0.08 in2.0 mm
07:15 PM 46.6°F8.1°C 40.4°F4.7°C 79% 4.4 mph NW7.1 kmh NW 6.9 mph11.1 kmh 30.03 in1016.9 mb 0.00 in0.0 mm 0.00 in0.0 mm 0.08 in2.0 mm
07:10 PM 46.6°F8.1°C 40.4°F4.7°C 79% 3.8 mph NW6.1 kmh NW 6.9 mph11.1 kmh 30.03 in1016.9 mb 0.00 in0.0 mm 0.00 in0.0 mm 0.08 in2.0 mm
07:05 PM 46.8°F8.2°C 40.6°F4.8°C 79% 3.5 mph NW5.6 kmh NW 5.4 mph8.7 kmh 30.03 in1016.9 mb 0.00 in0.0 mm 0.00 in0.0 mm 0.08 in2.0 mm
07:00 PM 46.8°F8.2°C 40.6°F4.8°C 79% 3.4 mph NW5.5 kmh NW 5.4 mph8.7 kmh 30.03 in1016.9 mb 0.00 in0.0 mm 0.00 in0.0 mm 0.08 in2.0 mm
06:55 PM 46.9°F8.3°C 40.8°F4.9°C 79% 3.2 mph NW5.1 kmh NW 5.4 mph8.7 kmh 30.03 in1016.9 mb 0.00 in0.0 mm 0.00 in0.0 mm 0.08 in2.0 mm
06:50 PM 46.9°F8.3°C 40.4°F4.7°C 78% 3.6 mph NW5.8 kmh NW 5.4 mph8.7 kmh 30.03 in1016.9 mb 0.00 in0.0 mm 0.00 in0.0 mm 0.08 in2.0 mm
06:45 PM 46.9°F8.3°C 40.4°F4.7°C 78% 3.6 mph NNW5.8 kmh NNW 5.4 mph8.7 kmh 30.03 in1016.9 mb 0.00 in0.0 mm 0.00 in0.0 mm 0.08 in2.0 mm
06:40 PM 46.9°F8.3°C 40.4°F4.7°C 78% 3.8 mph NW6.1 kmh NW 4.5 mph7.2 kmh 30.03 in1016.9 mb 0.00 in0.0 mm 0.00 in0.0 mm 0.08 in2.0 mm
06:35 PM 46.9°F8.3°C 40.4°F4.7°C 78% 4.7 mph NW7.6 kmh NW 6.9 mph11.1 kmh 30.02 in1016.6 mb 0.00 in0.0 mm 0.00 in0.0 mm 0.08 in2.0 mm
06:30 PM 47.1°F8.4°C 40.3°F4.6°C 77% 5.3 mph NW8.5 kmh NW 6.9 mph11.1 kmh 30.02 in1016.6 mb 0.00 in0.0 mm 0.00 in0.0 mm 0.08 in2.0 mm
06:25 PM 47.1°F8.4°C 40.3°F4.6°C 77% 4.8 mph NW7.7 kmh NW 6.9 mph11.1 kmh 30.02 in1016.6 mb 0.00 in0.0 mm 0.00 in0.0 mm 0.08 in2.0 mm
06:20 PM 47.3°F8.5°C 40.5°F4.7°C 77% 4.6 mph NW7.4 kmh NW 6.0 mph9.7 kmh 30.02 in1016.6 mb 0.00 in0.0 mm 0.00 in0.0 mm 0.08 in2.0 mm
06:15 PM 47.3°F8.5°C 40.5°F4.7°C 77% 5.1 mph NW8.2 kmh NW 6.0 mph9.7 kmh 30.02 in1016.6 mb 0.00 in0.0 mm 0.00 in0.0 mm 0.08 in2.0 mm
06:10 PM 47.3°F8.5°C 40.5°F4.7°C 77% 5.5 mph NW8.9 kmh NW 6.0 mph9.7 kmh 30.01 in1016.3 mb 0.00 in0.0 mm 0.00 in0.0 mm 0.08 in2.0 mm
06:05 PM 47.5°F8.6°C 40.3°F4.6°C 76% 4.8 mph NW7.7 kmh NW 6.0 mph9.7 kmh 30.01 in1016.3 mb 0.00 in0.0 mm 0.00 in0.0 mm 0.08 in2.0 mm
06:00 PM 47.5°F8.6°C 40.3°F4.6°C 76% 4.5 mph NW7.2 kmh NW 6.9 mph11.1 kmh 30.01 in1016.3 mb 0.00 in0.0 mm 0.00 in0.0 mm 0.08 in2.0 mm
05:55 PM 47.7°F8.7°C 40.5°F4.7°C 76% 4.4 mph NW7.1 kmh NW 6.9 mph11.1 kmh 30.01 in1016.3 mb 0.00 in0.0 mm 0.00 in0.0 mm 0.08 in2.0 mm
05:50 PM 47.5°F8.6°C 40.3°F4.6°C 76% 3.6 mph NW5.8 kmh NW 6.9 mph11.1 kmh 30.01 in1016.3 mb 0.00 in0.0 mm 0.00 in0.0 mm 0.08 in2.0 mm
05:45 PM 47.7°F8.7°C 40.1°F4.5°C 75% 2.8 mph NW4.5 kmh NW 4.5 mph7.2 kmh 30.00 in1015.9 mb 0.00 in0.0 mm 0.00 in0.0 mm 0.08 in2.0 mm
05:40 PM 47.8°F8.8°C 40.3°F4.6°C 75% 3.2 mph NW5.1 kmh NW 5.4 mph8.7 kmh 29.99 in1015.6 mb 0.00 in0.0 mm 0.00 in0.0 mm 0.08 in2.0 mm
05:35 PM 47.8°F8.8°C 40.0°F4.4°C 74% 3.4 mph NW5.5 kmh NW 5.4 mph8.7 kmh 29.99 in1015.6 mb 0.00 in0.0 mm 0.00 in0.0 mm 0.08 in2.0 mm
05:30 PM 47.8°F8.8°C 39.6°F4.2°C 73% 3.2 mph NW5.1 kmh NW 5.4 mph8.7 kmh 29.99 in1015.6 mb 0.00 in0.0 mm 0.00 in0.0 mm 0.08 in2.0 mm
05:25 PM 48.0°F8.9°C 39.4°F4.1°C 72% 4.3 mph NW6.9 kmh NW 6.9 mph11.1 kmh 29.98 in1015.2 mb 0.00 in0.0 mm 0.00 in0.0 mm 0.08 in2.0 mm
05:20 PM 48.4°F9.1°C 39.4°F4.1°C 71% 5.2 mph WNW8.4 kmh WNW 6.9 mph11.1 kmh 29.98 in1015.2 mb 0.00 in0.0 mm 0.00 in0.0 mm 0.08 in2.0 mm
05:15 PM 48.6°F9.2°C 39.6°F4.2°C 71% 5.2 mph W8.4 kmh W 6.9 mph11.1 kmh 29.98 in1015.2 mb 0.00 in0.0 mm 0.00 in0.0 mm 0.08 in2.0 mm
05:10 PM 48.7°F9.3°C 39.4°F4.1°C 70% 5.1 mph WNW8.2 kmh WNW 6.9 mph11.1 kmh 29.98 in1015.2 mb 0.00 in0.0 mm 0.00 in0.0 mm 0.08 in2.0 mm
05:05 PM 48.7°F9.3°C 39.4°F4.1°C 70% 5.2 mph NW8.4 kmh NW 6.9 mph11.1 kmh 29.98 in1015.2 mb 0.00 in0.0 mm 0.00 in0.0 mm 0.08 in2.0 mm
05:00 PM 48.9°F9.4°C 39.2°F4.0°C 69% 6.7 mph NW10.8 kmh NW 10.7 mph17.2 kmh 29.97 in1014.9 mb 0.00 in0.0 mm 0.00 in0.0 mm 0.08 in2.0 mm
04:55 PM 49.1°F9.5°C 39.0°F3.9°C 68% 9.2 mph NW14.8 kmh NW 12.1 mph19.5 kmh 29.98 in1015.2 mb 0.00 in0.0 mm 0.00 in0.0 mm 0.08 in2.0 mm
04:50 PM 49.5°F9.7°C 39.0°F3.9°C 67% 9.6 mph WNW15.4 kmh WNW 12.1 mph19.5 kmh 29.97 in1014.9 mb 0.00 in0.0 mm 0.00 in0.0 mm 0.08 in2.0 mm
04:45 PM 50.0°F10.0°C 39.5°F4.2°C 67% 9.3 mph WNW15.0 kmh WNW 12.1 mph19.5 kmh 29.97 in1014.9 mb 0.00 in0.0 mm 0.00 in0.0 mm 0.08 in2.0 mm
04:40 PM 50.4°F10.2°C 39.4°F4.1°C 66% 8.9 mph NW14.3 kmh NW 12.1 mph19.5 kmh 29.96 in1014.6 mb 0.00 in0.0 mm 0.00 in0.0 mm 0.08 in2.0 mm
04:35 PM 51.1°F10.6°C 40.1°F4.5°C 66% 9.5 mph WNW15.3 kmh WNW 15.2 mph24.5 kmh 29.96 in1014.6 mb 0.00 in0.0 mm 0.00 in0.0 mm 0.08 in2.0 mm
04:30 PM 51.6°F10.9°C 39.8°F4.3°C 64% 10.0 mph W16.1 kmh W 15.2 mph24.5 kmh 29.96 in1014.6 mb 0.00 in0.0 mm 0.00 in0.0 mm 0.08 in2.0 mm
04:25 PM 52.2°F11.2°C 40.4°F4.7°C 64% 9.1 mph W14.6 kmh W 13.6 mph21.9 kmh 29.96 in1014.6 mb 0.00 in0.0 mm 0.00 in0.0 mm 0.08 in2.0 mm
04:20 PM 52.3°F11.3°C 40.5°F4.7°C 64% 10.0 mph W16.1 kmh W 14.5 mph23.3 kmh 29.96 in1014.6 mb 0.00 in0.0 mm 0.00 in0.0 mm 0.08 in2.0 mm
04:15 PM 52.3°F11.3°C 40.5°F4.7°C 64% 11.2 mph WNW18.0 kmh WNW 14.5 mph23.3 kmh 29.96 in1014.6 mb 0.00 in0.0 mm 0.00 in0.0 mm 0.08 in2.0 mm
04:10 PM 52.5°F11.4°C 40.3°F4.6°C 63% 11.1 mph W17.9 kmh W 14.5 mph23.3 kmh 29.96 in1014.6 mb 0.00 in0.0 mm 0.00 in0.0 mm 0.08 in2.0 mm
04:05 PM 52.7°F11.5°C 40.5°F4.7°C 63% 10.0 mph W16.1 kmh W 14.5 mph23.3 kmh 29.96 in1014.6 mb 0.00 in0.0 mm 0.00 in0.0 mm 0.08 in2.0 mm
04:00 PM 52.2°F11.2°C 40.8°F4.9°C 65% 9.5 mph W15.3 kmh W 11.4 mph18.3 kmh 29.96 in1014.6 mb 0.00 in0.0 mm 0.00 in0.0 mm 0.08 in2.0 mm
03:55 PM 51.6°F10.9°C 40.2°F4.6°C 65% 10.0 mph W16.1 kmh W 15.9 mph25.6 kmh 29.96 in1014.6 mb 0.00 in0.0 mm 0.00 in0.0 mm 0.08 in2.0 mm
03:50 PM 52.2°F11.2°C 40.4°F4.7°C 64% 8.5 mph WNW13.7 kmh WNW 15.9 mph25.6 kmh 29.96 in1014.6 mb 0.00 in0.0 mm 0.00 in0.0 mm 0.08 in2.0 mm
03:45 PM 53.2°F11.8°C 41.4°F5.2°C 64% 8.1 mph W13.0 kmh W 12.1 mph19.5 kmh 29.96 in1014.6 mb 0.00 in0.0 mm 0.00 in0.0 mm 0.08 in2.0 mm
03:40 PM 54.0°F12.2°C 41.7°F5.4°C 63% 9.6 mph W15.4 kmh W 12.1 mph19.5 kmh 29.96 in1014.6 mb 0.00 in0.0 mm 0.00 in0.0 mm 0.08 in2.0 mm
03:35 PM 54.3°F12.4°C 41.6°F5.3°C 62% 9.0 mph W14.5 kmh W 13.0 mph20.9 kmh 29.96 in1014.6 mb 0.00 in0.0 mm 0.00 in0.0 mm 0.08 in2.0 mm
03:30 PM 54.3°F12.4°C 42.0°F5.6°C 63% 8.7 mph W14.0 kmh W 13.0 mph20.9 kmh 29.96 in1014.6 mb 0.00 in0.0 mm 0.00 in0.0 mm 0.08 in2.0 mm
03:25 PM 54.3°F12.4°C 41.6°F5.3°C 62% 10.3 mph W16.6 kmh W 13.6 mph21.9 kmh 29.95 in1014.2 mb 0.00 in0.0 mm 0.00 in0.0 mm 0.08 in2.0 mm
03:20 PM 54.7°F12.6°C 41.5°F5.3°C 61% 10.3 mph W16.6 kmh W 13.6 mph21.9 kmh 29.95 in1014.2 mb 0.00 in0.0 mm 0.00 in0.0 mm 0.08 in2.0 mm
03:15 PM 54.3°F12.4°C 42.4°F5.8°C 64% 7.5 mph W12.1 kmh W 11.4 mph18.3 kmh 29.95 in1014.2 mb 0.00 in0.0 mm 0.00 in0.0 mm 0.08 in2.0 mm
03:10 PM 53.8°F12.1°C 41.9°F5.5°C 64% 5.2 mph W8.4 kmh W 7.6 mph12.2 kmh 29.94 in1013.9 mb 0.00 in0.0 mm 0.00 in0.0 mm 0.08 in2.0 mm
03:05 PM 52.5°F11.4°C 41.9°F5.5°C 67% 5.6 mph WNW9.0 kmh WNW 9.2 mph14.8 kmh 29.94 in1013.9 mb 0.00 in0.0 mm 0.00 in0.0 mm 0.08 in2.0 mm
03:00 PM 51.6°F10.9°C 40.2°F4.6°C 65% 8.7 mph W14.0 kmh W 16.8 mph27.0 kmh 29.94 in1013.9 mb 0.00 in0.0 mm 0.00 in0.0 mm 0.08 in2.0 mm
02:55 PM 52.5°F11.4°C 40.7°F4.8°C 64% 11.5 mph W18.5 kmh W 16.8 mph27.0 kmh 29.94 in1013.9 mb 0.00 in0.0 mm 0.00 in0.0 mm 0.08 in2.0 mm
02:50 PM 54.0°F12.2°C 40.8°F4.9°C 61% 12.7 mph W20.4 kmh W 15.9 mph25.6 kmh 29.94 in1013.9 mb 0.00 in0.0 mm 0.00 in0.0 mm 0.08 in2.0 mm
02:45 PM 55.2°F12.9°C 42.9°F6.1°C 63% 11.0 mph W17.7 kmh W 15.9 mph25.6 kmh 29.94 in1013.9 mb 0.00 in0.0 mm 0.00 in0.0 mm 0.08 in2.0 mm
02:40 PM 55.4°F13.0°C 43.0°F6.1°C 63% 6.8 mph W10.9 kmh W 13.6 mph21.9 kmh 29.94 in1013.9 mb 0.00 in0.0 mm 0.00 in0.0 mm 0.08 in2.0 mm
02:35 PM 55.2°F12.9°C 43.7°F6.5°C 65% 5.5 mph NW8.9 kmh NW 7.6 mph12.2 kmh 29.94 in1013.9 mb 0.00 in0.0 mm 0.00 in0.0 mm 0.08 in2.0 mm
02:30 PM 55.6°F13.1°C 44.8°F7.1°C 67% 5.9 mph NW9.5 kmh NW 7.6 mph12.2 kmh 29.93 in1013.5 mb 0.00 in0.0 mm 0.00 in0.0 mm 0.08 in2.0 mm
02:25 PM 54.5°F12.5°C 44.2°F6.8°C 68% 6.4 mph W10.3 kmh W 9.8 mph15.8 kmh 29.93 in1013.5 mb 0.00 in0.0 mm 0.00 in0.0 mm 0.08 in2.0 mm
02:20 PM 52.2°F11.2°C 42.7°F5.9°C 70% 7.7 mph W12.4 kmh W 11.4 mph18.3 kmh 29.93 in1013.5 mb 0.00 in0.0 mm 0.00 in0.0 mm 0.08 in2.0 mm
02:15 PM 51.3°F10.7°C 41.1°F5.1°C 68% 6.9 mph W11.1 kmh W 11.4 mph18.3 kmh 29.93 in1013.5 mb 0.00 in0.0 mm 0.00 in0.0 mm 0.08 in2.0 mm
02:10 PM 51.6°F10.9°C 41.8°F5.4°C 69% 6.8 mph SW10.9 kmh SW 12.1 mph19.5 kmh 29.93 in1013.5 mb 0.00 in0.0 mm 0.00 in0.0 mm 0.08 in2.0 mm
02:05 PM 51.1°F10.6°C 42.0°F5.6°C 71% 9.6 mph WSW15.4 kmh WSW 16.8 mph27.0 kmh 29.93 in1013.5 mb 0.00 in0.0 mm 0.00 in0.0 mm 0.08 in2.0 mm
02:00 PM 50.0°F10.0°C 40.6°F4.8°C 70% 8.5 mph WSW13.7 kmh WSW 16.8 mph27.0 kmh 29.93 in1013.5 mb 0.00 in0.0 mm 0.00 in0.0 mm 0.08 in2.0 mm
01:55 PM 50.2°F10.1°C 41.1°F5.1°C 71% 6.7 mph W10.8 kmh W 12.1 mph19.5 kmh 29.93 in1013.5 mb 0.00 in0.0 mm 0.00 in0.0 mm 0.08 in2.0 mm
01:50 PM 50.4°F10.2°C 41.0°F5.0°C 70% 7.0 mph WNW11.3 kmh WNW 12.1 mph19.5 kmh 29.93 in1013.5 mb 0.00 in0.0 mm 0.00 in0.0 mm 0.08 in2.0 mm
01:45 PM 50.9°F10.5°C 41.5°F5.3°C 70% 5.4 mph W8.7 kmh W 9.2 mph14.8 kmh 29.93 in1013.5 mb 0.00 in0.0 mm 0.00 in0.0 mm 0.08 in2.0 mm
01:40 PM 51.6°F10.9°C 42.5°F5.8°C 71% 5.1 mph SSW8.2 kmh SSW 7.6 mph12.2 kmh 29.92 in1013.2 mb 0.01 in0.3 mm 0.00 in0.0 mm 0.08 in2.0 mm
01:35 PM 51.6°F10.9°C 42.9°F6.1°C 72% 6.3 mph S10.1 kmh S 9.8 mph15.8 kmh 29.92 in1013.2 mb 0.01 in0.3 mm 0.00 in0.0 mm 0.08 in2.0 mm
01:30 PM 51.6°F10.9°C 43.3°F6.3°C 73% 6.8 mph SSW10.9 kmh SSW 11.4 mph18.3 kmh 29.93 in1013.5 mb 0.01 in0.3 mm 0.00 in0.0 mm 0.08 in2.0 mm
01:25 PM 50.7°F10.4°C 42.7°F5.9°C 74% 6.9 mph W11.1 kmh W 11.4 mph18.3 kmh 29.93 in1013.5 mb 0.01 in0.3 mm 0.00 in0.0 mm 0.08 in2.0 mm
01:20 PM 49.8°F9.9°C 41.5°F5.3°C 73% 7.5 mph W12.1 kmh W 10.7 mph17.2 kmh 29.93 in1013.5 mb 0.01 in0.3 mm 0.00 in0.0 mm 0.08 in2.0 mm
01:15 PM 50.2°F10.1°C 41.5°F5.3°C 72% 9.9 mph W15.9 kmh W 14.5 mph23.3 kmh 29.93 in1013.5 mb 0.01 in0.3 mm 0.00 in0.0 mm 0.08 in2.0 mm
01:10 PM 51.1°F10.6°C 41.6°F5.3°C 70% 10.2 mph WNW16.4 kmh WNW 14.5 mph23.3 kmh 29.93 in1013.5 mb 0.01 in0.3 mm 0.00 in0.0 mm 0.08 in2.0 mm
01:05 PM 52.0°F11.1°C 42.9°F6.1°C 71% 9.0 mph WNW14.5 kmh WNW 14.5 mph23.3 kmh 29.93 in1013.5 mb 0.01 in0.3 mm 0.00 in0.0 mm 0.08 in2.0 mm
01:00 PM 51.4°F10.8°C 42.7°F5.9°C 72% 7.8 mph WNW12.6 kmh WNW 14.5 mph23.3 kmh 29.93 in1013.5 mb 0.01 in0.3 mm 0.00 in0.0 mm 0.08 in2.0 mm
12:55 PM 51.3°F10.7°C 43.3°F6.3°C 74% 8.5 mph WNW13.7 kmh WNW 14.5 mph23.3 kmh 29.93 in1013.5 mb 0.01 in0.3 mm 0.00 in0.0 mm 0.08 in2.0 mm
12:50 PM 52.2°F11.2°C 43.4°F6.3°C 72% 10.2 mph W16.4 kmh W 14.5 mph23.3 kmh 29.93 in1013.5 mb 0.01 in0.3 mm 0.00 in0.0 mm 0.08 in2.0 mm
12:45 PM 54.0°F12.2°C 45.1°F7.3°C 72% 8.4 mph W13.5 kmh W 14.5 mph23.3 kmh 29.93 in1013.5 mb 0.01 in0.3 mm 0.12 in3.0 mm 0.08 in2.0 mm
12:40 PM 53.6°F12.0°C 46.2°F7.9°C 76% 8.0 mph W12.9 kmh W 10.7 mph17.2 kmh 29.93 in1013.5 mb 0.00 in0.0 mm 0.00 in0.0 mm 0.07 in1.8 mm
12:35 PM 52.7°F11.5°C 46.4°F8.0°C 79% 7.8 mph W12.6 kmh W 9.8 mph15.8 kmh 29.93 in1013.5 mb 0.00 in0.0 mm 0.00 in0.0 mm 0.07 in1.8 mm
12:30 PM 51.4°F10.8°C 46.1°F7.8°C 82% 6.3 mph W10.1 kmh W 7.6 mph12.2 kmh 29.93 in1013.5 mb 0.00 in0.0 mm 0.00 in0.0 mm 0.07 in1.8 mm
12:25 PM 50.4°F10.2°C 45.7°F7.6°C 84% 5.0 mph W8.0 kmh W 6.9 mph11.1 kmh 29.93 in1013.5 mb 0.00 in0.0 mm 0.00 in0.0 mm 0.07 in1.8 mm
12:20 PM 49.3°F9.6°C 44.7°F7.1°C 84% 4.7 mph W7.6 kmh W 9.2 mph14.8 kmh 29.93 in1013.5 mb 0.00 in0.0 mm 0.00 in0.0 mm 0.07 in1.8 mm
12:15 PM 49.6°F9.8°C 44.7°F7.1°C 83% 5.2 mph W8.4 kmh W 9.2 mph14.8 kmh 29.94 in1013.9 mb 0.00 in0.0 mm 0.00 in0.0 mm 0.07 in1.8 mm
12:10 PM 50.5°F10.3°C 45.6°F7.6°C 83% 4.8 mph W7.7 kmh W 8.3 mph13.4 kmh 29.93 in1013.5 mb 0.00 in0.0 mm 0.00 in0.0 mm 0.07 in1.8 mm
12:05 PM 51.1°F10.6°C 46.4°F8.0°C 84% 5.7 mph W9.2 kmh W 8.3 mph13.4 kmh 29.94 in1013.9 mb 0.00 in0.0 mm 0.00 in0.0 mm 0.07 in1.8 mm
12:00 PM 50.9°F10.5°C 47.2°F8.4°C 87% 5.8 mph W9.3 kmh W 8.3 mph13.4 kmh 29.94 in1013.9 mb 0.00 in0.0 mm 0.00 in0.0 mm 0.07 in1.8 mm
11:55 AM 50.0°F10.0°C 47.2°F8.4°C 90% 3.9 mph W6.3 kmh W 6.0 mph9.7 kmh 29.94 in1013.9 mb 0.00 in0.0 mm 0.00 in0.0 mm 0.07 in1.8 mm
11:50 AM 48.2°F9.0°C 46.0°F7.8°C 92% 3.2 mph W5.1 kmh W 4.5 mph7.2 kmh 29.94 in1013.9 mb 0.00 in0.0 mm 0.00 in0.0 mm 0.07 in1.8 mm
11:45 AM 46.9°F8.3°C 44.7°F7.1°C 92% 4.0 mph W6.4 kmh W 7.6 mph12.2 kmh 29.93 in1013.5 mb 0.00 in0.0 mm 0.00 in0.0 mm 0.07 in1.8 mm
11:40 AM 46.4°F8.0°C 44.2°F6.8°C 92% 4.1 mph W6.6 kmh W 7.6 mph12.2 kmh 29.95 in1014.2 mb 0.01 in0.3 mm 0.00 in0.0 mm 0.07 in1.8 mm
11:35 AM 46.4°F8.0°C 44.5°F6.9°C 93% 3.2 mph W5.1 kmh W 5.4 mph8.7 kmh 29.94 in1013.9 mb 0.01 in0.3 mm 0.00 in0.0 mm 0.07 in1.8 mm
11:30 AM 46.4°F8.0°C 44.5°F6.9°C 93% 3.4 mph W5.5 kmh W 5.4 mph8.7 kmh 29.95 in1014.2 mb 0.01 in0.3 mm 0.00 in0.0 mm 0.07 in1.8 mm
11:25 AM 46.2°F7.9°C 44.3°F6.8°C 93% 3.4 mph W5.5 kmh W 5.4 mph8.7 kmh 29.94 in1013.9 mb 0.01 in0.3 mm 0.00 in0.0 mm 0.07 in1.8 mm
11:20 AM 45.9°F7.7°C 44.0°F6.7°C 93% 3.8 mph W6.1 kmh W 6.0 mph9.7 kmh 29.95 in1014.2 mb 0.01 in0.3 mm 0.00 in0.0 mm 0.07 in1.8 mm
11:15 AM 45.7°F7.6°C 43.8°F6.6°C 93% 3.1 mph W5.0 kmh W 6.0 mph9.7 kmh 29.96 in1014.6 mb 0.01 in0.3 mm 0.00 in0.0 mm 0.07 in1.8 mm
11:10 AM 45.7°F7.6°C 43.8°F6.6°C 93% 1.8 mph WNW2.9 kmh WNW 3.1 mph5.0 kmh 29.95 in1014.2 mb 0.01 in0.3 mm 0.00 in0.0 mm 0.07 in1.8 mm
11:05 AM 45.9°F7.7°C 44.2°F6.8°C 94% 1.4 mph NW2.3 kmh NW 3.1 mph5.0 kmh 29.95 in1014.2 mb 0.02 in0.5 mm 0.00 in0.0 mm 0.07 in1.8 mm
11:00 AM 45.7°F7.6°C 44.1°F6.7°C 94% 0.7 mph NNE1.1 kmh NNE 1.6 mph2.6 kmh 29.94 in1013.9 mb 0.04 in1.0 mm 0.00 in0.0 mm 0.07 in1.8 mm
10:55 AM 45.5°F7.5°C 44.2°F6.8°C 95% 1.0 mph SW1.6 kmh SW 3.1 mph5.0 kmh 29.94 in1013.9 mb 0.04 in1.0 mm 0.00 in0.0 mm 0.07 in1.8 mm
10:50 AM 44.8°F7.1°C 43.7°F6.5°C 96% 1.6 mph SW2.6 kmh SW 3.1 mph5.0 kmh 29.94 in1013.9 mb 0.04 in1.0 mm 0.00 in0.0 mm 0.07 in1.8 mm
10:45 AM 44.2°F6.8°C 42.9°F6.1°C 95% 2.4 mph SW3.9 kmh SW 5.4 mph8.7 kmh 29.95 in1014.2 mb 0.04 in1.0 mm 0.24 in6.1 mm 0.07 in1.8 mm
10:40 AM 44.1°F6.7°C 42.7°F5.9°C 95% 2.6 mph SW4.2 kmh SW 5.4 mph8.7 kmh 29.95 in1014.2 mb 0.02 in0.5 mm 0.00 in0.0 mm 0.06 in1.5 mm
10:35 AM 43.9°F6.6°C 42.5°F5.8°C 95% 1.9 mph WSW3.1 kmh WSW 3.8 mph6.1 kmh 29.96 in1014.6 mb 0.02 in0.5 mm 0.00 in0.0 mm 0.06 in1.5 mm
10:30 AM 43.9°F6.6°C 42.5°F5.8°C 95% 3.1 mph W5.0 kmh W 7.6 mph12.2 kmh 29.96 in1014.6 mb 0.02 in0.5 mm 0.00 in0.0 mm 0.06 in1.5 mm
10:25 AM 43.7°F6.5°C 42.4°F5.8°C 95% 4.7 mph W7.6 kmh W 7.6 mph12.2 kmh 29.96 in1014.6 mb 0.02 in0.5 mm 0.00 in0.0 mm 0.06 in1.5 mm
10:20 AM 43.7°F6.5°C 42.4°F5.8°C 95% 5.5 mph SW8.9 kmh SW 8.3 mph13.4 kmh 29.96 in1014.6 mb 0.02 in0.5 mm 0.00 in0.0 mm 0.06 in1.5 mm
10:15 AM 43.7°F6.5°C 42.4°F5.8°C 95% 6.0 mph SW9.7 kmh SW 8.3 mph13.4 kmh 29.96 in1014.6 mb 0.02 in0.5 mm 0.00 in0.0 mm 0.06 in1.5 mm
10:10 AM 43.9°F6.6°C 42.5°F5.8°C 95% 7.3 mph SW11.7 kmh SW 13.0 mph20.9 kmh 29.96 in1014.6 mb 0.02 in0.5 mm 0.12 in3.0 mm 0.06 in1.5 mm
10:05 AM 44.1°F6.7°C 42.7°F5.9°C 95% 7.7 mph WNW12.4 kmh WNW 13.0 mph20.9 kmh 29.95 in1014.2 mb 0.01 in0.3 mm 0.12 in3.0 mm 0.05 in1.3 mm
10:00 AM 44.4°F6.9°C 43.1°F6.2°C 95% 5.9 mph WNW9.5 kmh WNW 13.0 mph20.9 kmh 29.95 in1014.2 mb 0.00 in0.0 mm 0.00 in0.0 mm 0.04 in1.0 mm
09:55 AM 44.8°F7.1°C 43.4°F6.3°C 95% 5.9 mph W9.5 kmh W 11.4 mph18.3 kmh 29.95 in1014.2 mb 0.00 in0.0 mm 0.00 in0.0 mm 0.04 in1.0 mm
09:50 AM 45.3°F7.4°C 44.2°F6.8°C 96% 7.2 mph WNW11.6 kmh WNW 13.0 mph20.9 kmh 29.95 in1014.2 mb 0.00 in0.0 mm 0.00 in0.0 mm 0.04 in1.0 mm
09:45 AM 45.7°F7.6°C 44.6°F7.0°C 96% 5.6 mph WNW9.0 kmh WNW 13.0 mph20.9 kmh 29.95 in1014.2 mb 0.00 in0.0 mm 0.00 in0.0 mm 0.04 in1.0 mm
09:40 AM 45.9°F7.7°C 45.1°F7.3°C 97% 4.8 mph WNW7.7 kmh WNW 9.8 mph15.8 kmh 29.93 in1013.5 mb 0.01 in0.3 mm 0.00 in0.0 mm 0.04 in1.0 mm
09:35 AM 45.9°F7.7°C 45.1°F7.3°C 97% 4.8 mph WNW7.7 kmh WNW 9.8 mph15.8 kmh 29.92 in1013.2 mb 0.01 in0.3 mm 0.00 in0.0 mm 0.04 in1.0 mm
09:30 AM 46.0°F7.8°C 45.5°F7.5°C 98% 3.9 mph W6.3 kmh W 6.9 mph11.1 kmh 29.92 in1013.2 mb 0.01 in0.3 mm 0.00 in0.0 mm 0.04 in1.0 mm
09:25 AM 46.2°F7.9°C 45.7°F7.6°C 98% 3.7 mph WSW6.0 kmh WSW 6.9 mph11.1 kmh 29.92 in1013.2 mb 0.01 in0.3 mm 0.00 in0.0 mm 0.04 in1.0 mm
09:20 AM 46.4°F8.0°C 46.1°F7.8°C 99% 3.1 mph SW5.0 kmh SW 6.0 mph9.7 kmh 29.91 in1012.9 mb 0.02 in0.5 mm 0.00 in0.0 mm 0.04 in1.0 mm
09:15 AM 46.4°F8.0°C 46.1°F7.8°C 99% 2.8 mph WSW4.5 kmh WSW 3.8 mph6.1 kmh 29.92 in1013.2 mb 0.02 in0.5 mm 0.00 in0.0 mm 0.04 in1.0 mm
09:10 AM 46.2°F7.9°C 46.0°F7.8°C 99% 3.2 mph WSW5.1 kmh WSW 5.4 mph8.7 kmh 29.91 in1012.9 mb 0.02 in0.5 mm 0.00 in0.0 mm 0.04 in1.0 mm
09:05 AM 46.2°F7.9°C 46.0°F7.8°C 99% 3.0 mph WSW4.8 kmh WSW 5.4 mph8.7 kmh 29.91 in1012.9 mb 0.02 in0.5 mm 0.00 in0.0 mm 0.04 in1.0 mm
09:00 AM 45.9°F7.7°C 45.6°F7.6°C 99% 1.9 mph WSW3.1 kmh WSW 4.5 mph7.2 kmh 29.91 in1012.9 mb 0.02 in0.5 mm 0.00 in0.0 mm 0.04 in1.0 mm
08:55 AM 45.9°F7.7°C 45.6°F7.6°C 99% 1.2 mph SW1.9 kmh SW 2.2 mph3.5 kmh 29.91 in1012.9 mb 0.02 in0.5 mm 0.00 in0.0 mm 0.04 in1.0 mm
08:50 AM 45.9°F7.7°C 45.6°F7.6°C 99% 1.1 mph SW1.8 kmh SW 2.2 mph3.5 kmh 29.91 in1012.9 mb 0.02 in0.5 mm 0.00 in0.0 mm 0.04 in1.0 mm
08:45 AM 45.7°F7.6°C 45.4°F7.4°C 99% 0.8 mph SW1.3 kmh SW 2.2 mph3.5 kmh 29.91 in1012.9 mb 0.02 in0.5 mm 0.12 in3.0 mm 0.04 in1.0 mm
08:40 AM 45.7°F7.6°C 45.4°F7.4°C 99% 0.5 mph WSW0.8 kmh WSW 1.6 mph2.6 kmh 29.91 in1012.9 mb 0.01 in0.3 mm 0.00 in0.0 mm 0.02 in0.5 mm
08:35 AM 45.7°F7.6°C 45.4°F7.4°C 99% 1.0 mph W1.6 kmh W 2.2 mph3.5 kmh 29.91 in1012.9 mb 0.01 in0.3 mm 0.00 in0.0 mm 0.02 in0.5 mm
08:30 AM 45.5°F7.5°C 45.2°F7.3°C 99% 2.0 mph W3.2 kmh W 3.8 mph6.1 kmh 29.92 in1013.2 mb 0.01 in0.3 mm 0.00 in0.0 mm 0.02 in0.5 mm
08:25 AM 45.5°F7.5°C 45.2°F7.3°C 99% 2.6 mph W4.2 kmh W 3.8 mph6.1 kmh 29.92 in1013.2 mb 0.01 in0.3 mm 0.12 in3.0 mm 0.02 in0.5 mm
08:20 AM 45.5°F7.5°C 45.2°F7.3°C 99% 2.7 mph W4.3 kmh W 4.5 mph7.2 kmh 29.92 in1013.2 mb 0.00 in0.0 mm 0.00 in0.0 mm 0.01 in0.3 mm
08:15 AM 45.5°F7.5°C 45.2°F7.3°C 99% 3.6 mph W5.8 kmh W 5.4 mph8.7 kmh 29.91 in1012.9 mb 0.00 in0.0 mm 0.00 in0.0 mm 0.01 in0.3 mm
08:10 AM 45.5°F7.5°C 45.2°F7.3°C 99% 4.5 mph W7.2 kmh W 6.9 mph11.1 kmh 29.92 in1013.2 mb 0.00 in0.0 mm 0.00 in0.0 mm 0.01 in0.3 mm
08:05 AM 45.5°F7.5°C 45.2°F7.3°C 99% 5.2 mph W8.4 kmh W 7.6 mph12.2 kmh 29.92 in1013.2 mb 0.00 in0.0 mm 0.00 in0.0 mm 0.01 in0.3 mm
08:00 AM 45.3°F7.4°C 45.1°F7.3°C 99% 5.5 mph W8.9 kmh W 7.6 mph12.2 kmh 29.92 in1013.2 mb 0.01 in0.3 mm 0.00 in0.0 mm 0.01 in0.3 mm
07:55 AM 45.3°F7.4°C 45.1°F7.3°C 99% 3.8 mph W6.1 kmh W 5.4 mph8.7 kmh 29.92 in1013.2 mb 0.01 in0.3 mm 0.00 in0.0 mm 0.01 in0.3 mm
07:50 AM 45.1°F7.3°C 44.9°F7.2°C 99% 1.6 mph WSW2.6 kmh WSW 4.5 mph7.2 kmh 29.91 in1012.9 mb 0.01 in0.3 mm 0.00 in0.0 mm 0.01 in0.3 mm
07:45 AM 45.1°F7.3°C 44.9°F7.2°C 99% 0.9 mph WSW1.4 kmh WSW 2.2 mph3.5 kmh 29.91 in1012.9 mb 0.01 in0.3 mm 0.00 in0.0 mm 0.01 in0.3 mm
07:40 AM 45.0°F7.2°C 44.7°F7.1°C 99% 0.8 mph WSW1.3 kmh WSW 2.2 mph3.5 kmh 29.91 in1012.9 mb 0.01 in0.3 mm 0.00 in0.0 mm 0.01 in0.3 mm
07:35 AM 45.0°F7.2°C 44.7°F7.1°C 99% 0.5 mph SW0.8 kmh SW 0.7 mph1.1 kmh 29.91 in1012.9 mb 0.01 in0.3 mm 0.00 in0.0 mm 0.01 in0.3 mm
07:30 AM 45.0°F7.2°C 44.7°F7.1°C 99% 0.2 mph WSW0.3 kmh WSW 0.7 mph1.1 kmh 29.91 in1012.9 mb 0.01 in0.3 mm 0.00 in0.0 mm 0.01 in0.3 mm
07:25 AM 45.0°F7.2°C 44.7°F7.1°C 99% 0.4 mph W0.6 kmh W 1.6 mph2.6 kmh 29.91 in1012.9 mb 0.01 in0.3 mm 0.00 in0.0 mm 0.01 in0.3 mm
07:20 AM 44.8°F7.1°C 44.5°F6.9°C 99% 0.7 mph W1.1 kmh W 1.6 mph2.6 kmh 29.91 in1012.9 mb 0.01 in0.3 mm 0.00 in0.0 mm 0.01 in0.3 mm
07:15 AM 44.8°F7.1°C 44.5°F6.9°C 99% 0.6 mph WSW1.0 kmh WSW 1.6 mph2.6 kmh 29.91 in1012.9 mb 0.01 in0.3 mm 0.00 in0.0 mm 0.01 in0.3 mm
07:10 AM 44.6°F7.0°C 44.3°F6.8°C 99% 0.5 mph SW0.8 kmh SW 0.7 mph1.1 kmh 29.91 in1012.9 mb 0.01 in0.3 mm 0.00 in0.0 mm 0.01 in0.3 mm
07:05 AM 44.6°F7.0°C 44.3°F6.8°C 99% 0.3 mph SW0.5 kmh SW 0.7 mph1.1 kmh 29.90 in1012.5 mb 0.01 in0.3 mm 0.12 in3.0 mm 0.01 in0.3 mm
07:00 AM 44.6°F7.0°C 44.3°F6.8°C 99% 0.4 mph SSW0.6 kmh SSW 0.7 mph1.1 kmh 29.90 in1012.5 mb 0.00 in0.0 mm 0.00 in0.0 mm 0.04 in1.0 mm
06:55 AM 44.6°F7.0°C 44.3°F6.8°C 99% 0.4 mph SW0.6 kmh SW 0.7 mph1.1 kmh 29.89 in1012.2 mb 0.00 in0.0 mm 0.00 in0.0 mm 0.04 in1.0 mm
06:50 AM 44.6°F7.0°C 44.3°F6.8°C 99% 0.7 mph NW1.1 kmh NW 1.6 mph2.6 kmh 29.89 in1012.2 mb 0.00 in0.0 mm 0.00 in0.0 mm 0.04 in1.0 mm
06:45 AM 44.4°F6.9°C 44.2°F6.8°C 99% 0.6 mph NW1.0 kmh NW 1.6 mph2.6 kmh 29.89 in1012.2 mb 0.00 in0.0 mm 0.00 in0.0 mm 0.04 in1.0 mm
06:40 AM 44.6°F7.0°C 44.3°F6.8°C 99% 0.6 mph WNW1.0 kmh WNW 1.6 mph2.6 kmh 29.90 in1012.5 mb 0.00 in0.0 mm 0.00 in0.0 mm 0.04 in1.0 mm
06:35 AM 44.4°F6.9°C 44.2°F6.8°C 99% 1.0 mph WNW1.6 kmh WNW 1.6 mph2.6 kmh 29.89 in1012.2 mb 0.00 in0.0 mm 0.00 in0.0 mm 0.04 in1.0 mm
06:30 AM 44.4°F6.9°C 44.2°F6.8°C 99% 0.6 mph WNW1.0 kmh WNW 1.6 mph2.6 kmh 29.89 in1012.2 mb 0.00 in0.0 mm 0.00 in0.0 mm 0.04 in1.0 mm
06:25 AM 44.6°F7.0°C 44.3°F6.8°C 99% 0.4 mph W0.6 kmh W 1.6 mph2.6 kmh 29.89 in1012.2 mb 0.00 in0.0 mm 0.00 in0.0 mm 0.04 in1.0 mm
06:20 AM 44.8°F7.1°C 44.5°F6.9°C 99% 1.0 mph E1.6 kmh E 1.6 mph2.6 kmh 29.89 in1012.2 mb 0.00 in0.0 mm 0.00 in0.0 mm 0.04 in1.0 mm
06:15 AM 44.8°F7.1°C 44.5°F6.9°C 99% 1.6 mph E2.6 kmh E 1.6 mph2.6 kmh 29.89 in1012.2 mb 0.00 in0.0 mm 0.00 in0.0 mm 0.04 in1.0 mm
06:10 AM 44.8°F7.1°C 44.5°F6.9°C 99% 1.2 mph E1.9 kmh E 1.6 mph2.6 kmh 29.89 in1012.2 mb 0.00 in0.0 mm 0.00 in0.0 mm 0.04 in1.0 mm
06:05 AM 44.8°F7.1°C 44.5°F6.9°C 99% 0.6 mph SE1.0 kmh SE 1.6 mph2.6 kmh 29.89 in1012.2 mb 0.00 in0.0 mm 0.00 in0.0 mm 0.04 in1.0 mm
06:00 AM 44.8°F7.1°C 44.5°F6.9°C 99% 0.2 mph S0.3 kmh S 0.7 mph1.1 kmh 29.89 in1012.2 mb 0.00 in0.0 mm 0.00 in0.0 mm 0.04 in1.0 mm
05:55 AM 44.8°F7.1°C 44.5°F6.9°C 99% Calm Calm -- 29.90 in1012.5 mb 0.00 in0.0 mm 0.00 in0.0 mm 0.04 in1.0 mm
05:50 AM 44.8°F7.1°C 44.5°F6.9°C 99% Calm Calm -- 29.90 in1012.5 mb 0.00 in0.0 mm 0.00 in0.0 mm 0.04 in1.0 mm
05:45 AM 44.6°F7.0°C 44.3°F6.8°C 99% Calm Calm -- 29.90 in1012.5 mb 0.00 in0.0 mm 0.00 in0.0 mm 0.04 in1.0 mm
05:40 AM 44.6°F7.0°C 44.3°F6.8°C 99% 0.1 mph SW0.2 kmh SW 0.7 mph1.1 kmh 29.91 in1012.9 mb 0.00 in0.0 mm 0.00 in0.0 mm 0.04 in1.0 mm
05:35 AM 44.4°F6.9°C 44.2°F6.8°C 99% 0.6 mph WSW1.0 kmh WSW 1.6 mph2.6 kmh 29.91 in1012.9 mb 0.00 in0.0 mm 0.00 in0.0 mm 0.04 in1.0 mm
05:30 AM 44.2°F6.8°C 44.0°F6.7°C 99% 1.1 mph WSW1.8 kmh WSW 1.6 mph2.6 kmh 29.91 in1012.9 mb 0.00 in0.0 mm 0.00 in0.0 mm 0.04 in1.0 mm
05:25 AM 44.2°F6.8°C 44.0°F6.7°C 99% 1.2 mph WSW1.9 kmh WSW 2.2 mph3.5 kmh 29.91 in1012.9 mb 0.00 in0.0 mm 0.00 in0.0 mm 0.04 in1.0 mm
05:20 AM 44.1°F6.7°C 43.8°F6.6°C 99% 0.5 mph SW0.8 kmh SW 2.2 mph3.5 kmh 29.90 in1012.5 mb 0.00 in0.0 mm 0.00 in0.0 mm 0.04 in1.0 mm
05:15 AM 43.9°F6.6°C 43.6°F6.4°C 99% Calm Calm -- 29.90 in1012.5 mb 0.00 in0.0 mm 0.00 in0.0 mm 0.04 in1.0 mm
05:10 AM 43.9°F6.6°C 43.6°F6.4°C 99% Calm Calm -- 29.90 in1012.5 mb 0.00 in0.0 mm 0.00 in0.0 mm 0.04 in1.0 mm
05:05 AM 44.1°F6.7°C 43.8°F6.6°C 99% Calm Calm -- 29.90 in1012.5 mb 0.00 in0.0 mm 0.00 in0.0 mm 0.04 in1.0 mm
05:00 AM 44.1°F6.7°C 43.8°F6.6°C 99% Calm Calm -- 29.90 in1012.5 mb 0.00 in0.0 mm 0.00 in0.0 mm 0.04 in1.0 mm
04:55 AM 44.2°F6.8°C 44.0°F6.7°C 99% Calm Calm -- 29.90 in1012.5 mb 0.00 in0.0 mm 0.00 in0.0 mm 0.04 in1.0 mm
04:50 AM 44.4°F6.9°C 44.2°F6.8°C 99% Calm Calm -- 29.90 in1012.5 mb 0.00 in0.0 mm 0.00 in0.0 mm 0.04 in1.0 mm
04:45 AM 44.4°F6.9°C 44.2°F6.8°C 99% Calm Calm -- 29.90 in1012.5 mb 0.00 in0.0 mm 0.00 in0.0 mm 0.04 in1.0 mm
04:40 AM 44.6°F7.0°C 44.3°F6.8°C 99% Calm Calm -- 29.91 in1012.9 mb 0.00 in0.0 mm 0.00 in0.0 mm 0.04 in1.0 mm
04:35 AM 44.6°F7.0°C 44.3°F6.8°C 99% 0.1 mph W0.2 kmh W 0.7 mph1.1 kmh 29.91 in1012.9 mb 0.00 in0.0 mm 0.00 in0.0 mm 0.04 in1.0 mm
04:30 AM 44.6°F7.0°C 44.3°F6.8°C 99% 0.3 mph S0.5 kmh S 1.6 mph2.6 kmh 29.91 in1012.9 mb 0.00 in0.0 mm 0.00 in0.0 mm 0.04 in1.0 mm
04:25 AM 44.6°F7.0°C 44.3°F6.8°C 99% 0.6 mph S1.0 kmh S 1.6 mph2.6 kmh 29.91 in1012.9 mb 0.00 in0.0 mm 0.00 in0.0 mm 0.04 in1.0 mm
04:20 AM 44.6°F7.0°C 44.3°F6.8°C 99% 1.1 mph SSE1.8 kmh SSE 2.2 mph3.5 kmh 29.91 in1012.9 mb 0.00 in0.0 mm 0.00 in0.0 mm 0.04 in1.0 mm
04:15 AM 44.8°F7.1°C 44.5°F6.9°C 99% 1.2 mph S1.9 kmh S 2.2 mph3.5 kmh 29.91 in1012.9 mb 0.00 in0.0 mm 0.00 in0.0 mm 0.04 in1.0 mm
04:10 AM 45.0°F7.2°C 44.7°F7.1°C 99% 0.5 mph S0.8 kmh S 1.6 mph2.6 kmh 29.91 in1012.9 mb 0.00 in0.0 mm 0.00 in0.0 mm 0.04 in1.0 mm
04:05 AM 45.1°F7.3°C 44.9°F7.2°C 99% 0.1 mph SW0.2 kmh SW 0.7 mph1.1 kmh 29.91 in1012.9 mb 0.00 in0.0 mm 0.00 in0.0 mm 0.04 in1.0 mm
04:00 AM 45.1°F7.3°C 44.9°F7.2°C 99% Calm Calm -- 29.91 in1012.9 mb 0.00 in0.0 mm 0.00 in0.0 mm 0.04 in1.0 mm
03:55 AM 45.1°F7.3°C 44.9°F7.2°C 99% Calm Calm -- 29.92 in1013.2 mb 0.00 in0.0 mm 0.00 in0.0 mm 0.04 in1.0 mm
03:50 AM 45.1°F7.3°C 44.9°F7.2°C 99% Calm Calm -- 29.92 in1013.2 mb 0.00 in0.0 mm 0.00 in0.0 mm 0.04 in1.0 mm
03:45 AM 45.3°F7.4°C 45.1°F7.3°C 99% 0.1 mph S0.2 kmh S 0.7 mph1.1 kmh 29.92 in1013.2 mb 0.00 in0.0 mm 0.00 in0.0 mm 0.04 in1.0 mm
03:40 AM 45.3°F7.4°C 45.1°F7.3°C 99% 0.2 mph S0.3 kmh S 0.7 mph1.1 kmh 29.93 in1013.5 mb 0.00 in0.0 mm 0.00 in0.0 mm 0.04 in1.0 mm
03:35 AM 45.5°F7.5°C 45.2°F7.3°C 99% 0.1 mph S0.2 kmh S 0.7 mph1.1 kmh 29.93 in1013.5 mb 0.00 in0.0 mm 0.00 in0.0 mm 0.04 in1.0 mm
03:30 AM 45.5°F7.5°C 45.2°F7.3°C 99% 0.2 mph SSE0.3 kmh SSE 1.6 mph2.6 kmh 29.93 in1013.5 mb 0.00 in0.0 mm 0.00 in0.0 mm 0.04 in1.0 mm
03:25 AM 45.7°F7.6°C 45.4°F7.4°C 99% 0.5 mph SSE0.8 kmh SSE 1.6 mph2.6 kmh 29.93 in1013.5 mb 0.00 in0.0 mm 0.00 in0.0 mm 0.04 in1.0 mm
03:20 AM 45.7°F7.6°C 45.4°F7.4°C 99% 0.5 mph S0.8 kmh S 1.6 mph2.6 kmh 29.93 in1013.5 mb 0.00 in0.0 mm 0.00 in0.0 mm 0.04 in1.0 mm
03:15 AM 45.5°F7.5°C 45.2°F7.3°C 99% 0.8 mph S1.3 kmh S 1.6 mph2.6 kmh 29.94 in1013.9 mb 0.00 in0.0 mm 0.00 in0.0 mm 0.04 in1.0 mm
03:10 AM 45.7°F7.6°C 45.4°F7.4°C 99% 1.1 mph S1.8 kmh S 1.6 mph2.6 kmh 29.94 in1013.9 mb 0.00 in0.0 mm 0.00 in0.0 mm 0.04 in1.0 mm
03:05 AM 45.7°F7.6°C 45.4°F7.4°C 99% 1.1 mph SE1.8 kmh SE 1.6 mph2.6 kmh 29.94 in1013.9 mb 0.00 in0.0 mm 0.00 in0.0 mm 0.04 in1.0 mm
03:00 AM 45.7°F7.6°C 45.4°F7.4°C 99% 1.3 mph SSE2.1 kmh SSE 1.6 mph2.6 kmh 29.94 in1013.9 mb 0.00 in0.0 mm 0.00 in0.0 mm 0.04 in1.0 mm
02:55 AM 45.7°F7.6°C 45.4°F7.4°C 99% 0.9 mph SSE1.4 kmh SSE 1.6 mph2.6 kmh 29.95 in1014.2 mb 0.00 in0.0 mm 0.00 in0.0 mm 0.04 in1.0 mm
02:50 AM 45.7°F7.6°C 45.4°F7.4°C 99% 0.3 mph SSE0.5 kmh SSE 1.6 mph2.6 kmh 29.95 in1014.2 mb 0.00 in0.0 mm 0.00 in0.0 mm 0.04 in1.0 mm
02:45 AM 45.7°F7.6°C 45.4°F7.4°C 99% 0.2 mph S0.3 kmh S 0.7 mph1.1 kmh 29.96 in1014.6 mb 0.00 in0.0 mm 0.00 in0.0 mm 0.04 in1.0 mm
02:40 AM 45.9°F7.7°C 45.6°F7.6°C 99% 0.3 mph SSE0.5 kmh SSE 1.6 mph2.6 kmh 29.96 in1014.6 mb 0.00 in0.0 mm 0.00 in0.0 mm 0.04 in1.0 mm
02:35 AM 45.9°F7.7°C 45.6°F7.6°C 99% 1.0 mph SE1.6 kmh SE 1.6 mph2.6 kmh 29.96 in1014.6 mb 0.00 in0.0 mm 0.00 in0.0 mm 0.04 in1.0 mm
02:30 AM 45.7°F7.6°C 45.4°F7.4°C 99% 1.1 mph SE1.8 kmh SE 1.6 mph2.6 kmh 29.96 in1014.6 mb 0.00 in0.0 mm 0.00 in0.0 mm 0.04 in1.0 mm
02:25 AM 45.7°F7.6°C 45.4°F7.4°C 99% 0.9 mph SSE1.4 kmh SSE 1.6 mph2.6 kmh 29.97 in1014.9 mb 0.00 in0.0 mm 0.00 in0.0 mm 0.04 in1.0 mm
02:20 AM 45.7°F7.6°C 45.4°F7.4°C 99% 1.3 mph S2.1 kmh S 1.6 mph2.6 kmh 29.98 in1015.2 mb 0.00 in0.0 mm 0.00 in0.0 mm 0.04 in1.0 mm
02:15 AM 45.7°F7.6°C 45.4°F7.4°C 99% 1.7 mph S2.7 kmh S 2.2 mph3.5 kmh 29.97 in1014.9 mb 0.00 in0.0 mm 0.00 in0.0 mm 0.04 in1.0 mm
02:10 AM 45.9°F7.7°C 45.6°F7.6°C 99% 1.8 mph S2.9 kmh S 2.2 mph3.5 kmh 29.97 in1014.9 mb 0.00 in0.0 mm 0.00 in0.0 mm 0.04 in1.0 mm
02:05 AM 46.0°F7.8°C 45.8°F7.7°C 99% 1.6 mph S2.6 kmh S 2.2 mph3.5 kmh 29.98 in1015.2 mb 0.00 in0.0 mm 0.00 in0.0 mm 0.04 in1.0 mm
02:00 AM 45.9°F7.7°C 45.6°F7.6°C 99% 1.0 mph S1.6 kmh S 1.6 mph2.6 kmh 29.98 in1015.2 mb 0.00 in0.0 mm 0.00 in0.0 mm 0.04 in1.0 mm
01:55 AM 45.9°F7.7°C 45.6°F7.6°C 99% 1.1 mph E1.8 kmh E 3.1 mph5.0 kmh 29.99 in1015.6 mb 0.00 in0.0 mm 0.00 in0.0 mm 0.04 in1.0 mm
01:50 AM 45.9°F7.7°C 45.6°F7.6°C 99% 1.0 mph ENE1.6 kmh ENE 3.1 mph5.0 kmh 29.98 in1015.2 mb 0.00 in0.0 mm 0.00 in0.0 mm 0.04 in1.0 mm
01:45 AM 46.0°F7.8°C 45.8°F7.7°C 99% 0.8 mph S1.3 kmh S 3.1 mph5.0 kmh 29.97 in1014.9 mb 0.00 in0.0 mm 0.00 in0.0 mm 0.04 in1.0 mm
01:40 AM 46.0°F7.8°C 45.8°F7.7°C 99% 1.7 mph S2.7 kmh S 2.2 mph3.5 kmh 29.98 in1015.2 mb 0.00 in0.0 mm 0.00 in0.0 mm 0.04 in1.0 mm
01:35 AM 46.2°F7.9°C 46.0°F7.8°C 99% 1.9 mph SSE3.1 kmh SSE 2.2 mph3.5 kmh 29.98 in1015.2 mb 0.00 in0.0 mm 0.00 in0.0 mm 0.04 in1.0 mm
01:30 AM 46.2°F7.9°C 46.0°F7.8°C 99% 1.8 mph SE2.9 kmh SE 2.2 mph3.5 kmh 29.98 in1015.2 mb 0.00 in0.0 mm 0.00 in0.0 mm 0.04 in1.0 mm
01:25 AM 46.2°F7.9°C 46.0°F7.8°C 99% 1.8 mph SE2.9 kmh SE 2.2 mph3.5 kmh 29.99 in1015.6 mb 0.00 in0.0 mm 0.00 in0.0 mm 0.04 in1.0 mm
01:20 AM 46.2°F7.9°C 46.0°F7.8°C 99% 1.3 mph SE2.1 kmh SE 2.2 mph3.5 kmh 29.99 in1015.6 mb 0.00 in0.0 mm 0.00 in0.0 mm 0.04 in1.0 mm
01:15 AM 46.0°F7.8°C 45.8°F7.7°C 99% 0.9 mph SSE1.4 kmh SSE 2.2 mph3.5 kmh 30.00 in1015.9 mb 0.00 in0.0 mm 0.00 in0.0 mm 0.04 in1.0 mm
01:10 AM 46.2°F7.9°C 46.0°F7.8°C 99% 1.0 mph SSE1.6 kmh SSE 1.6 mph2.6 kmh 30.00 in1015.9 mb 0.00 in0.0 mm 0.00 in0.0 mm 0.04 in1.0 mm
01:05 AM 46.4°F8.0°C 46.1°F7.8°C 99% 1.4 mph SE2.3 kmh SE 2.2 mph3.5 kmh 30.00 in1015.9 mb 0.00 in0.0 mm 0.00 in0.0 mm 0.04 in1.0 mm
01:00 AM 46.4°F8.0°C 46.1°F7.8°C 99% 1.5 mph SE2.4 kmh SE 2.2 mph3.5 kmh 30.00 in1015.9 mb 0.00 in0.0 mm 0.00 in0.0 mm 0.04 in1.0 mm
12:55 AM 46.4°F8.0°C 46.1°F7.8°C 99% 1.1 mph SE1.8 kmh SE 1.6 mph2.6 kmh 30.01 in1016.3 mb 0.01 in0.3 mm 0.00 in0.0 mm 0.04 in1.0 mm
12:50 AM 46.2°F7.9°C 46.0°F7.8°C 99% 1.2 mph E1.9 kmh E 3.1 mph5.0 kmh 30.02 in1016.6 mb 0.01 in0.3 mm 0.00 in0.0 mm 0.04 in1.0 mm
12:45 AM 46.2°F7.9°C 46.0°F7.8°C 99% 1.7 mph ENE2.7 kmh ENE 3.1 mph5.0 kmh 30.02 in1016.6 mb 0.01 in0.3 mm 0.00 in0.0 mm 0.04 in1.0 mm
12:40 AM 46.2°F7.9°C 46.0°F7.8°C 99% 1.7 mph E2.7 kmh E 3.1 mph5.0 kmh 30.02 in1016.6 mb 0.01 in0.3 mm 0.00 in0.0 mm 0.04 in1.0 mm
12:35 AM 46.4°F8.0°C 46.1°F7.8°C 99% 1.5 mph ESE2.4 kmh ESE 2.2 mph3.5 kmh 30.02 in1016.6 mb 0.01 in0.3 mm 0.00 in0.0 mm 0.04 in1.0 mm
12:30 AM 46.6°F8.1°C 46.3°F7.9°C 99% 1.6 mph SE2.6 kmh SE 2.2 mph3.5 kmh 30.02 in1016.6 mb 0.02 in0.5 mm 0.00 in0.0 mm 0.04 in1.0 mm
12:25 AM 46.6°F8.1°C 46.3°F7.9°C 99% 1.9 mph E3.1 kmh E 3.1 mph5.0 kmh 30.02 in1016.6 mb 0.02 in0.5 mm 0.00 in0.0 mm 0.04 in1.0 mm
12:20 AM 46.6°F8.1°C 46.3°F7.9°C 99% 1.9 mph E3.1 kmh E 3.1 mph5.0 kmh 30.02 in1016.6 mb 0.02 in0.5 mm 0.00 in0.0 mm 0.04 in1.0 mm
12:15 AM 46.6°F8.1°C 46.3°F7.9°C 99% 2.2 mph ENE3.5 kmh ENE 3.1 mph5.0 kmh 30.02 in1016.6 mb 0.04 in1.0 mm 0.00 in0.0 mm 0.04 in1.0 mm
12:10 AM 46.6°F8.1°C 46.3°F7.9°C 99% 2.3 mph ENE3.7 kmh ENE 3.1 mph5.0 kmh 30.02 in1016.6 mb 0.04 in1.0 mm 0.00 in0.0 mm 0.04 in1.0 mm
12:05 AM 46.8°F8.2°C 46.5°F8.1°C 99% 1.3 mph ENE2.1 kmh ENE 3.1 mph5.0 kmh 30.03 in1016.9 mb 0.04 in1.0 mm 0.00 in0.0 mm 0.04 in1.0 mm
12:00 AM 46.8°F8.2°C 46.5°F8.1°C 99% 1.7 mph NE2.7 kmh NE 3.8 mph6.1 kmh 30.03 in1016.9 mb 0.04 in1.0 mm 0.00 in0.0 mm 0.04 in1.0 mm